createdAt,value
2019-05-05T00:02:24.974Z,15.88
2019-05-05T00:05:15.440Z,14.87
2019-05-05T00:07:47.475Z,19.20
2019-05-05T00:10:22.934Z,13.70
2019-05-05T00:12:56.530Z,15.72
2019-05-05T00:15:34.386Z,18.12
2019-05-05T00:18:05.867Z,16.00
2019-05-05T00:20:38.243Z,17.17
2019-05-05T00:23:09.475Z,18.55
2019-05-05T00:25:40.825Z,16.77
2019-05-05T00:28:14.204Z,18.80
2019-05-05T00:30:45.570Z,19.42
2019-05-05T00:33:17.001Z,21.57
2019-05-05T00:35:48.449Z,21.57
2019-05-05T00:38:19.769Z,20.52
2019-05-05T00:40:51.076Z,24.25
2019-05-05T00:43:22.423Z,24.77
2019-05-05T00:45:55.927Z,19.85
2019-05-05T00:48:30.085Z,21.52
2019-05-05T00:51:01.477Z,21.12
2019-05-05T00:53:34.316Z,35.23
2019-05-05T00:56:05.903Z,24.65
2019-05-05T00:58:38.897Z,26.90
2019-05-05T01:01:14.523Z,27.20
2019-05-05T01:03:45.856Z,25.68
2019-05-05T01:06:30.794Z,29.35
2019-05-05T01:09:04.194Z,26.65
2019-05-05T01:11:36.799Z,29.30
2019-05-05T01:14:08.105Z,28.20
2019-05-05T01:16:39.674Z,30.52
2019-05-05T01:19:11.166Z,30.70
2019-05-05T01:21:42.527Z,30.15
2019-05-05T01:24:14.376Z,33.78
2019-05-05T01:26:46.848Z,34.55
2019-05-05T01:29:18.170Z,28.42
2019-05-05T01:31:49.588Z,32.98
2019-05-05T01:34:34.956Z,36.03
2019-05-05T01:37:08.052Z,35.60
2019-05-05T01:39:47.137Z,33.80
2019-05-05T01:42:18.592Z,36.08
2019-05-05T01:44:49.969Z,31.55
2019-05-05T01:47:21.552Z,34.15
2019-05-05T01:49:54.462Z,34.38
2019-05-05T01:52:26.225Z,30.50
2019-05-05T01:54:57.552Z,34.15
2019-05-05T01:57:29.110Z,37.28
2019-05-05T02:00:00.715Z,36.38
2019-05-05T02:02:34.156Z,38.23
2019-05-05T02:05:06.538Z,38.83
2019-05-05T02:07:38.011Z,35.43
2019-05-05T02:10:09.828Z,35.73
2019-05-05T02:12:41.202Z,41.88
2019-05-05T02:15:14.721Z,34.95
2019-05-05T02:17:45.765Z,36.70
2019-05-05T02:20:41.733Z,45.98
2019-05-05T02:23:15.170Z,70.80
2019-05-05T02:25:47.067Z,47.78
2019-05-05T02:28:18.463Z,44.70
2019-05-05T02:31:09.644Z,31.65
2019-05-05T02:33:41.219Z,34.35
2019-05-05T02:36:12.545Z,23.12
2019-05-05T02:38:46.265Z,19.85
2019-05-05T02:41:18.259Z,21.65
2019-05-05T02:43:50.021Z,21.55
2019-05-05T02:46:25.357Z,23.85
2019-05-05T02:48:58.511Z,47.38
2019-05-05T02:51:31.465Z,32.65
2019-05-05T02:54:04.523Z,36.50
2019-05-05T02:56:39.763Z,37.40
2019-05-05T02:59:14.709Z,33.20
2019-05-05T03:01:50.602Z,93.65
2019-05-05T03:04:24.439Z,43.75
2019-05-05T03:06:56.931Z,72.85
2019-05-05T03:09:31.463Z,118.97
2019-05-05T03:12:04.915Z,29.65
2019-05-05T03:14:37.616Z,43.63
2019-05-05T03:17:14.506Z,36.68
2019-05-05T03:19:46.288Z,30.27
2019-05-05T03:22:18.424Z,73.78
2019-05-05T03:24:50.359Z,39.78
2019-05-05T03:27:23.713Z,36.30
2019-05-05T03:29:55.460Z,26.23
2019-05-05T03:32:27.692Z,23.73
2019-05-05T03:34:59.355Z,24.50
2019-05-05T03:37:30.921Z,25.70
2019-05-05T03:40:04.336Z,24.45
2019-05-05T03:42:37.513Z,26.65
2019-05-05T03:45:27.231Z,19.42
2019-05-05T03:47:58.859Z,27.27
2019-05-05T03:50:30.317Z,24.60
2019-05-05T03:53:02.477Z,30.57
2019-05-05T03:55:34.854Z,24.80
2019-05-05T03:58:06.415Z,21.65
2019-05-05T04:00:46.663Z,22.90
2019-05-05T04:03:18.111Z,18.20
2019-05-05T04:05:53.816Z,16.42
2019-05-05T04:08:25.717Z,18.30
2019-05-05T04:10:57.224Z,17.48
2019-05-05T04:13:29.423Z,19.20
2019-05-05T04:16:08.067Z,23.65
2019-05-05T04:18:54.251Z,23.27
2019-05-05T04:21:33.128Z,26.23
2019-05-05T04:23:58.713Z,21.50
2019-05-05T04:26:30.068Z,22.30
2019-05-05T04:29:05.329Z,22.05
2019-05-05T04:31:35.757Z,22.17
2019-05-05T04:34:07.164Z,22.40
2019-05-05T04:36:38.563Z,23.20
2019-05-05T04:39:09.827Z,23.98
2019-05-05T04:41:41.191Z,20.72
2019-05-05T04:44:14.441Z,23.07
2019-05-05T04:46:47.171Z,27.32
2019-05-05T04:49:20.212Z,25.88
2019-05-05T04:51:59.222Z,24.72
2019-05-05T04:54:35.168Z,28.75
2019-05-05T04:57:06.645Z,28.32
2019-05-05T04:59:38.031Z,25.80
2019-05-05T05:02:14.407Z,27.55
2019-05-05T05:04:47.429Z,26.23
2019-05-05T05:07:19.287Z,23.55
2019-05-05T05:09:50.628Z,18.32
2019-05-05T05:12:23.750Z,25.02
2019-05-05T05:14:55.222Z,20.23
2019-05-05T05:17:28.418Z,18.48
2019-05-05T05:19:59.617Z,18.30
2019-05-05T05:22:30.980Z,17.80
2019-05-05T05:25:04.281Z,18.35
2019-05-05T05:27:35.370Z,20.25
2019-05-05T05:30:07.765Z,19.77
2019-05-05T05:32:39.870Z,19.77
2019-05-05T05:35:14.097Z,18.55
2019-05-05T05:37:46.697Z,23.05
2019-05-05T05:40:20.243Z,16.45
2019-05-05T05:42:51.680Z,14.87
2019-05-05T05:45:27.350Z,17.48
2019-05-05T05:48:15.744Z,17.00
2019-05-05T05:50:48.807Z,18.35
2019-05-05T05:53:20.773Z,19.87
2019-05-05T05:55:53.779Z,14.30
2019-05-05T05:58:25.531Z,12.40
2019-05-05T06:00:57.773Z,14.43
2019-05-05T06:03:29.183Z,13.00
2019-05-05T06:06:00.662Z,10.65
2019-05-05T06:08:34.116Z,8.90
2019-05-05T06:11:06.096Z,12.23
2019-05-05T06:13:37.473Z,9.83
2019-05-05T06:16:08.828Z,9.55
2019-05-05T06:18:40.129Z,6.60
2019-05-05T06:21:13.364Z,12.90
2019-05-05T06:23:44.485Z,9.65
2019-05-05T06:26:15.689Z,7.90
2019-05-05T06:28:47.075Z,7.58
2019-05-05T06:31:18.556Z,7.03
2019-05-05T06:33:49.897Z,8.10
2019-05-05T06:36:23.328Z,6.17
2019-05-05T06:38:55.263Z,6.92
2019-05-05T06:41:31.104Z,12.07
2019-05-05T06:44:14.194Z,7.10
2019-05-05T06:46:59.237Z,9.50
2019-05-05T06:49:31.321Z,9.55
2019-05-05T06:52:04.057Z,8.60
2019-05-05T06:54:35.716Z,7.58
2019-05-05T06:57:07.349Z,9.08
2019-05-05T06:59:38.701Z,11.83
2019-05-05T07:02:10.030Z,11.18
2019-05-05T07:04:41.370Z,8.98
2019-05-05T07:07:14.619Z,6.95
2019-05-05T07:09:47.064Z,9.03
2019-05-05T07:12:18.384Z,7.28
2019-05-05T07:14:49.823Z,6.72
2019-05-05T07:17:21.184Z,11.25
2019-05-05T07:19:54.355Z,9.88
2019-05-05T07:22:27.228Z,7.60
2019-05-05T07:24:58.620Z,12.47
2019-05-05T07:27:30.026Z,11.50
2019-05-05T07:30:01.426Z,6.17
2019-05-05T07:32:33.807Z,6.50
2019-05-05T07:35:07.221Z,6.55
2019-05-05T07:37:38.633Z,10.40
2019-05-05T07:40:10.211Z,6.28
2019-05-05T07:42:41.623Z,12.00
2019-05-05T07:45:22.625Z,8.35
2019-05-05T07:47:47.603Z,9.33
2019-05-05T07:50:31.674Z,8.75
2019-05-05T07:52:54.511Z,9.43
2019-05-05T07:55:25.661Z,9.20
2019-05-05T07:57:57.291Z,11.75
2019-05-05T08:00:29.289Z,9.53
2019-05-05T08:03:03.748Z,4.83
2019-05-05T08:05:34.916Z,7.28
2019-05-05T08:08:06.438Z,7.05
2019-05-05T08:10:38.031Z,10.45
2019-05-05T08:13:10.494Z,8.40
2019-05-05T08:15:56.886Z,7.62
2019-05-05T08:18:34.656Z,10.10
2019-05-05T08:21:07.943Z,9.83
2019-05-05T08:23:46.891Z,9.88
2019-05-05T08:26:19.930Z,9.88
2019-05-05T08:28:53.984Z,4.92
2019-05-05T08:31:30.112Z,8.23
2019-05-05T08:34:03.338Z,5.53
2019-05-05T08:36:34.570Z,8.80
2019-05-05T08:39:07.015Z,7.55
2019-05-05T08:41:38.823Z,8.10
2019-05-05T08:44:10.213Z,8.53
2019-05-05T08:46:41.724Z,11.85
2019-05-05T08:49:13.708Z,7.65
2019-05-05T08:51:45.130Z,9.00
2019-05-05T08:54:16.448Z,10.45
2019-05-05T08:56:47.842Z,4.45
2019-05-05T08:59:19.165Z,7.92
2019-05-05T09:01:50.617Z,8.48
2019-05-05T09:04:24.699Z,19.35
2019-05-05T09:06:56.280Z,6.12
2019-05-05T09:09:27.719Z,4.60
2019-05-05T09:11:59.057Z,5.22
2019-05-05T09:14:30.293Z,5.83
2019-05-05T09:17:01.661Z,7.28
2019-05-05T09:19:34.479Z,6.30
2019-05-05T09:22:08.730Z,7.12
2019-05-05T09:24:40.828Z,9.25
2019-05-05T09:27:14.306Z,9.10
2019-05-05T09:29:48.653Z,6.20
2019-05-05T09:32:20.116Z,6.85
2019-05-05T09:34:51.596Z,8.03
2019-05-05T09:37:24.668Z,6.17
2019-05-05T09:39:56.215Z,6.75
2019-05-05T09:42:28.764Z,5.50
2019-05-05T09:45:00.123Z,12.23
2019-05-05T09:47:31.411Z,5.83
2019-05-05T09:50:03.890Z,9.98
2019-05-05T09:52:35.852Z,7.40
2019-05-05T09:55:09.169Z,6.92
2019-05-05T09:57:40.671Z,9.95
2019-05-05T10:00:15.287Z,6.05
2019-05-05T10:02:46.912Z,6.10
2019-05-05T10:05:23.625Z,9.68
2019-05-05T10:07:56.935Z,8.00
2019-05-05T10:10:29.275Z,8.15
2019-05-05T10:13:00.763Z,8.60
2019-05-05T10:15:32.225Z,5.47
2019-05-05T10:18:04.885Z,7.08
2019-05-05T10:20:36.337Z,10.70
2019-05-05T10:23:07.906Z,17.52
2019-05-05T10:25:47.134Z,5.20
2019-05-05T10:28:18.658Z,8.23
2019-05-05T10:30:50.428Z,5.70
2019-05-05T10:33:22.006Z,6.10
2019-05-05T10:35:54.118Z,4.65
2019-05-05T10:38:25.795Z,4.78
2019-05-05T10:41:00.535Z,5.30
2019-05-05T10:43:34.231Z,9.00
2019-05-05T10:46:05.453Z,8.38
2019-05-05T10:48:36.813Z,9.00
2019-05-05T10:51:09.459Z,11.18
2019-05-05T10:53:41.158Z,7.25
2019-05-05T10:56:13.699Z,10.43
2019-05-05T10:58:45.481Z,13.25
2019-05-05T11:01:16.986Z,5.75
2019-05-05T11:03:48.730Z,8.83
2019-05-05T11:06:20.463Z,4.80
2019-05-05T11:08:53.884Z,8.53
2019-05-05T11:11:25.128Z,9.83
2019-05-05T11:13:56.953Z,7.10
2019-05-05T11:16:29.485Z,10.85
2019-05-05T11:19:04.339Z,5.65
2019-05-05T11:21:35.965Z,8.78
2019-05-05T11:24:07.348Z,5.62
2019-05-05T11:26:38.867Z,7.00
2019-05-05T11:29:10.081Z,7.40
2019-05-05T11:31:41.502Z,8.73
2019-05-05T11:34:15.092Z,7.55
2019-05-05T11:36:48.151Z,9.60
2019-05-05T11:39:19.854Z,6.37
2019-05-05T11:41:51.365Z,9.15
2019-05-05T11:44:24.330Z,5.80
2019-05-05T11:46:55.892Z,5.12
2019-05-05T11:49:27.397Z,8.55
2019-05-05T11:51:58.842Z,4.25
2019-05-05T11:54:30.487Z,8.38
2019-05-05T11:57:03.716Z,5.42
2019-05-05T11:59:35.151Z,6.25
2019-05-05T12:02:06.531Z,4.85
2019-05-05T12:04:37.965Z,5.60
2019-05-05T12:07:09.251Z,12.98
2019-05-05T12:09:44.280Z,7.08
2019-05-05T12:12:15.319Z,5.85
2019-05-05T12:14:47.412Z,7.83
2019-05-05T12:17:20.581Z,9.13
2019-05-05T12:19:53.987Z,9.73
2019-05-05T12:22:25.027Z,10.20
2019-05-05T12:24:56.621Z,6.65
2019-05-05T12:27:33.898Z,9.63
2019-05-05T12:30:07.791Z,6.78
2019-05-05T12:32:40.124Z,5.03
2019-05-05T12:35:11.652Z,4.92
2019-05-05T12:37:44.546Z,6.20
2019-05-05T12:40:16.022Z,22.42
2019-05-05T12:42:47.308Z,12.82
2019-05-05T12:45:20.638Z,12.40
2019-05-05T12:48:13.472Z,12.65
2019-05-05T12:50:46.235Z,9.28
2019-05-05T12:53:17.577Z,3.37
2019-05-05T12:55:49.084Z,4.37
2019-05-05T12:58:20.596Z,5.58
2019-05-05T13:00:59.936Z,6.40
2019-05-05T13:03:31.477Z,7.72
2019-05-05T13:06:04.094Z,7.37
2019-05-05T13:08:35.786Z,5.00
2019-05-05T13:11:07.288Z,4.30
2019-05-05T13:13:38.725Z,10.23
2019-05-05T13:16:10.340Z,13.38
2019-05-05T13:18:41.832Z,6.60
2019-05-05T13:21:26.995Z,10.08
2019-05-05T13:24:34.355Z,7.05
2019-05-05T13:27:09.970Z,6.12
2019-05-05T13:29:40.369Z,5.00
2019-05-05T13:32:14.060Z,7.10
2019-05-05T13:34:47.262Z,6.55
2019-05-05T13:37:20.175Z,5.65
2019-05-05T13:39:53.734Z,7.50
2019-05-05T13:42:25.017Z,3.58
2019-05-05T13:44:58.136Z,7.00
2019-05-05T13:47:30.628Z,3.90
2019-05-05T13:50:03.783Z,3.42
2019-05-05T13:52:35.278Z,4.37
2019-05-05T13:55:07.998Z,8.23
2019-05-05T13:57:39.454Z,5.37
2019-05-05T14:00:14.090Z,3.02
2019-05-05T14:02:45.870Z,5.10
2019-05-05T14:05:17.305Z,14.25
2019-05-05T14:07:48.903Z,4.62
2019-05-05T14:10:20.464Z,8.00
2019-05-05T14:12:52.298Z,6.30
2019-05-05T14:15:23.805Z,9.93
2019-05-05T14:17:55.319Z,5.62
2019-05-05T14:20:27.114Z,3.33
2019-05-05T14:22:58.990Z,5.80
2019-05-05T14:25:32.451Z,4.00
2019-05-05T14:28:04.019Z,9.65
2019-05-05T14:30:37.122Z,5.55
2019-05-05T14:33:10.418Z,5.25
2019-05-05T14:35:46.308Z,4.53
2019-05-05T14:38:35.720Z,5.42
2019-05-05T14:41:07.320Z,7.78
2019-05-05T14:43:38.872Z,3.98
2019-05-05T14:46:10.265Z,7.65
2019-05-05T14:48:43.957Z,10.15
2019-05-05T14:51:14.987Z,4.47
2019-05-05T14:53:46.656Z,1.95
2019-05-05T14:56:18.082Z,6.30
2019-05-05T14:58:49.420Z,54.45
2019-05-05T15:01:20.843Z,12.47
2019-05-05T15:03:53.588Z,7.40
2019-05-05T15:06:29.316Z,7.95
2019-05-05T15:09:17.686Z,7.00
2019-05-05T15:11:56.809Z,4.70
2019-05-05T15:14:28.218Z,8.30
2019-05-05T15:16:59.713Z,8.88
2019-05-05T15:19:31.148Z,22.77
2019-05-05T15:22:02.833Z,7.00
2019-05-05T15:24:34.232Z,2.58
2019-05-05T15:27:05.639Z,5.08
2019-05-05T15:29:37.103Z,14.15
2019-05-05T15:32:08.500Z,7.90
2019-05-05T15:34:39.911Z,6.33
2019-05-05T15:37:11.324Z,10.88
2019-05-05T15:39:44.159Z,5.30
2019-05-05T15:42:15.855Z,5.83
2019-05-05T15:44:47.435Z,2.75
2019-05-05T15:47:20.376Z,4.53
2019-05-05T15:49:53.354Z,3.30
2019-05-05T15:52:24.705Z,6.00
2019-05-05T15:54:56.299Z,5.83
2019-05-05T15:57:28.781Z,9.55
2019-05-05T16:00:00.427Z,4.10
2019-05-05T16:02:31.966Z,4.67
2019-05-05T16:05:04.622Z,4.70
2019-05-05T16:07:36.101Z,3.72
2019-05-05T16:10:11.077Z,5.78
2019-05-05T16:12:44.826Z,4.47
2019-05-05T16:15:18.298Z,6.47
2019-05-05T16:18:07.771Z,18.55
2019-05-05T16:20:54.524Z,2.10
2019-05-05T16:23:43.642Z,3.80
2019-05-05T16:26:15.313Z,9.83
2019-05-05T16:28:46.630Z,3.77
2019-05-05T16:31:18.036Z,5.03
2019-05-05T16:33:51.765Z,3.05
2019-05-05T16:36:24.339Z,2.95
2019-05-05T16:38:55.669Z,2.75
2019-05-05T16:41:27.253Z,3.95
2019-05-05T16:43:58.706Z,3.37
2019-05-05T16:46:30.382Z,5.10
2019-05-05T16:49:03.559Z,3.52
2019-05-05T16:51:40.178Z,3.22
2019-05-05T16:54:13.787Z,4.25
2019-05-05T16:56:45.333Z,5.95
2019-05-05T16:59:17.296Z,2.95
2019-05-05T17:01:48.850Z,7.03
2019-05-05T17:04:20.275Z,4.67
2019-05-05T17:06:51.691Z,4.03
2019-05-05T17:09:24.045Z,5.33
2019-05-05T17:12:11.026Z,2.87
2019-05-05T17:14:50.165Z,2.47
2019-05-05T17:17:25.871Z,9.33
2019-05-05T17:19:58.086Z,4.37
2019-05-05T17:22:31.200Z,4.58
2019-05-05T17:25:02.855Z,6.78
2019-05-05T17:27:47.084Z,6.03
2019-05-05T17:30:08.635Z,4.20
2019-05-05T17:32:40.043Z,9.93
2019-05-05T17:35:11.540Z,7.62
2019-05-05T17:37:44.258Z,25.43
2019-05-05T17:40:34.102Z,5.42
2019-05-05T17:43:23.950Z,5.40
2019-05-05T17:45:57.856Z,6.60
2019-05-05T17:48:39.820Z,5.03
2019-05-05T17:51:15.496Z,3.75
2019-05-05T17:53:49.685Z,2.52
2019-05-05T17:56:21.009Z,4.28
2019-05-05T17:58:53.821Z,5.58
2019-05-05T18:01:25.454Z,4.95
2019-05-05T18:03:56.912Z,3.47
2019-05-05T18:06:30.054Z,4.45
2019-05-05T18:09:05.872Z,3.83
2019-05-05T18:11:38.917Z,7.10
2019-05-05T18:14:14.529Z,4.45
2019-05-05T18:16:45.937Z,7.37
2019-05-05T18:19:17.575Z,9.18
2019-05-05T18:21:49.582Z,5.95
2019-05-05T18:24:21.177Z,6.35
2019-05-05T18:26:53.665Z,3.75
2019-05-05T18:29:25.283Z,4.25
2019-05-05T18:31:56.713Z,4.10
2019-05-05T18:34:28.242Z,5.00
2019-05-05T18:36:59.748Z,7.05
2019-05-05T18:39:31.293Z,6.72
2019-05-05T18:42:06.904Z,4.97
2019-05-05T18:44:39.872Z,4.65
2019-05-05T18:47:18.412Z,5.10
2019-05-05T18:49:50.370Z,4.33
2019-05-05T18:52:21.775Z,5.12
2019-05-05T18:54:54.498Z,3.35
2019-05-05T18:57:26.304Z,6.85
2019-05-05T18:59:57.775Z,5.85
2019-05-05T19:02:44.296Z,5.72
2019-05-05T19:05:23.724Z,4.40
2019-05-05T19:08:04.501Z,3.80
2019-05-05T19:10:35.935Z,2.90
2019-05-05T19:13:07.567Z,7.50
2019-05-05T19:15:39.448Z,7.95
2019-05-05T19:18:11.045Z,5.00
2019-05-05T19:20:44.543Z,4.78
2019-05-05T19:23:16.135Z,4.12
2019-05-05T19:25:47.613Z,4.55
2019-05-05T19:28:20.274Z,5.55
2019-05-05T19:30:52.115Z,5.10
2019-05-05T19:33:24.587Z,5.12
2019-05-05T19:35:56.323Z,7.08
2019-05-05T19:38:27.807Z,7.33
2019-05-05T19:40:59.543Z,6.15
2019-05-05T19:43:31.051Z,5.67
2019-05-05T19:46:03.141Z,4.78
2019-05-05T19:48:34.562Z,5.83
2019-05-05T19:51:07.568Z,4.85
2019-05-05T19:53:38.892Z,4.67
2019-05-05T19:56:10.401Z,5.28
2019-05-05T19:58:57.333Z,6.20
2019-05-05T20:01:15.006Z,3.55
2019-05-05T20:03:46.608Z,5.62
2019-05-05T20:06:17.962Z,5.25
2019-05-05T20:08:49.508Z,4.20
2019-05-05T20:11:21.039Z,3.98
2019-05-05T20:14:04.744Z,7.80
2019-05-05T20:16:27.305Z,8.70
2019-05-05T20:18:58.804Z,5.95
2019-05-05T20:21:30.532Z,4.87
2019-05-05T20:24:03.693Z,4.62
2019-05-05T20:26:47.483Z,3.40
2019-05-05T20:29:36.737Z,3.60
2019-05-05T20:32:06.961Z,6.67
2019-05-05T20:34:42.733Z,9.50
2019-05-05T20:37:18.798Z,6.47
2019-05-05T20:39:50.203Z,12.00
2019-05-05T20:42:21.653Z,6.70
2019-05-05T20:44:54.402Z,18.07
2019-05-05T20:47:26.199Z,22.00
2019-05-05T20:49:59.461Z,6.22
2019-05-05T20:52:30.901Z,5.50
2019-05-05T20:55:04.655Z,6.75
2019-05-05T20:57:35.611Z,6.33
2019-05-05T21:00:09.224Z,7.17
2019-05-05T21:02:43.590Z,6.03
2019-05-05T21:05:15.381Z,6.17
2019-05-05T21:07:47.039Z,6.55
2019-05-05T21:10:18.448Z,12.55
2019-05-05T21:12:49.970Z,7.25
2019-05-05T21:15:21.736Z,6.75
2019-05-05T21:17:54.376Z,7.75
2019-05-05T21:20:26.443Z,8.88
2019-05-05T21:23:03.660Z,6.53
2019-05-05T21:25:39.998Z,6.47
2019-05-05T21:28:17.917Z,8.28
2019-05-05T21:30:49.331Z,6.60
2019-05-05T21:33:20.715Z,9.60
2019-05-05T21:35:54.850Z,7.22
2019-05-05T21:38:25.512Z,6.67
2019-05-05T21:40:57.903Z,7.25
2019-05-05T21:43:29.265Z,7.50
2019-05-05T21:46:00.724Z,6.12
2019-05-05T21:48:33.957Z,9.15
2019-05-05T21:51:09.593Z,7.70
2019-05-05T21:53:42.684Z,4.58
2019-05-05T21:56:34.082Z,6.20
2019-05-05T21:59:05.319Z,7.50
2019-05-05T22:01:39.481Z,6.70
2019-05-05T22:04:12.561Z,6.92
2019-05-05T22:06:43.635Z,9.05
2019-05-05T22:09:15.257Z,7.30
2019-05-05T22:11:46.906Z,4.65
2019-05-05T22:14:18.512Z,3.98
2019-05-05T22:16:49.868Z,5.20
2019-05-05T22:19:23.999Z,3.47
2019-05-05T22:21:56.975Z,6.10
2019-05-05T22:24:28.573Z,4.53
2019-05-05T22:26:59.975Z,5.42
2019-05-05T22:29:31.679Z,4.80
2019-05-05T22:32:06.046Z,7.37
2019-05-05T22:34:36.875Z,8.78
2019-05-05T22:37:09.894Z,6.17
2019-05-05T22:39:41.398Z,3.85
2019-05-05T22:42:13.710Z,4.95
2019-05-05T22:44:45.839Z,5.40
2019-05-05T22:47:17.252Z,5.40
2019-05-05T22:49:48.666Z,4.20
2019-05-05T22:52:20.074Z,4.90
2019-05-05T22:54:51.510Z,6.12
2019-05-05T22:57:24.726Z,5.58
2019-05-05T22:59:56.254Z,5.72
2019-05-05T23:02:29.216Z,6.87
2019-05-05T23:05:05.320Z,8.25
2019-05-05T23:07:36.694Z,6.58
2019-05-05T23:10:08.627Z,7.45
2019-05-05T23:12:40.078Z,7.83
2019-05-05T23:15:14.410Z,10.15
2019-05-05T23:17:46.769Z,6.70
2019-05-05T23:21:00.922Z,8.10
2019-05-05T23:23:50.482Z,6.60
2019-05-05T23:26:23.465Z,10.40
2019-05-05T23:28:54.987Z,8.05
2019-05-05T23:31:26.437Z,9.35
2019-05-05T23:33:58.939Z,13.85
2019-05-05T23:36:30.353Z,15.13
2019-05-05T23:39:05.770Z,9.68
2019-05-05T23:41:37.645Z,8.13
2019-05-05T23:44:08.954Z,9.10
2019-05-05T23:46:40.361Z,10.70
2019-05-05T23:49:13.741Z,11.78
2019-05-05T23:51:45.496Z,10.08
2019-05-05T23:54:17.309Z,13.03
2019-05-05T23:56:48.904Z,7.80
2019-05-05T23:59:20.234Z,8.03
